หน้าหลัก
METAR-TAF:

METAR-TAF

ท่าอากาศยาน :

ท่าอากาศยานนานาชาติคูเวต

คูเวตซิตี, คูเวต

ละติจูด: 29-13N, ลองจิจูด: 047-59E, ความสูง: 55 ม.

การสังเกตสภาพอากาศปัจจุบัน

รายงานได้ทำขึ้นเมื่อ 56 นาทีที่แล้ว ณ เวลา 04:00 UTC
ลม 4 นอตจากตะวันตกเฉียงใต้
อุณหภูมิ 31°C
ความชื้น 26%
ความกดอากาศ 1005 hPa
ทัศนวิสัย: 7000 ม.

METAR: OKKK 240400Z 22004KT 7000 NSC 31/09 Q1005 NOSIG

เวลา: 07:56 (04:56 UTC)

การพยากรณ์

รายงานได้ทำขึ้นเมื่อ 11 ชั่วโมงและ 56 นาทีที่แล้ว ณ เวลา 17:00 UTC
การพยากรณ์มีผลตั้งแต่วันที่ 23 ณ เวลา 18 UTC จนถึงวันที่ 24 ณ เวลา 24 UTC
ลม 12 นอตจากเหนือ/ตะวันตกเฉียงเหนือ
ทัศนวิสัย: 7000 ม.
ชั่วคราว
ตั้งแต่วันที่ 23 ณ เวลา 18 UTC จนถึงวันที่ 24 ณ เวลา 06 UTC
ลม 3 นอตจากทิศทางซึ่งแปรผันได้

TAF: OKKK 231700Z 2318/2424 34012KT 7000 NSC TEMPO 2318/2406 VRB03KT

สังเกตการณ์สภาพอากาศและพยากรณ์อากาศของสนามบินมากกว่า 4000 แห่ง (รายงาน METAR และ TAF).

สถานีที่ดูได้จะแสดงไว้ด้วยจุดสีเหลืองและสีแดงบนแผนที่.

เลื่อนเมาส์ไปเหนือจุดเพื่อดูชื่อสถานี.

แล้วคลิกเพื่อดูสังเกตการณ์และการพยากรณ์สภาพอากาศ.

ในการเปลี่ยนแผนที่: คลิกที่ปุ่มสีเขียวที่มีกากบาทสีดำเพื่อซูมเข้า; ที่ปุ่มสีเขียวที่มีขีดเพื่อซูมออก; หรือที่ลูกศรสีเขียวเพื่อไปยังแผนที่ที่อยู่ติดกัน.


METAR-TAF: